createdAt,value
2018-02-25T06:26:15.993Z,945.90
2018-02-25T06:27:15.963Z,945.89
2018-02-25T06:29:08.848Z,945.82
2018-02-25T06:30:08.808Z,945.90
2018-02-25T06:32:01.687Z,945.86
2018-02-25T06:33:01.668Z,945.88
2018-02-25T06:34:54.574Z,945.86
2018-02-25T06:35:54.526Z,946.05
2018-02-25T06:37:47.432Z,945.98
2018-02-25T06:38:47.375Z,945.97
2018-02-25T06:40:40.291Z,945.92
2018-02-25T06:41:40.263Z,945.93
2018-02-25T06:43:33.199Z,945.88
2018-02-25T06:44:33.145Z,945.91
2018-02-25T06:46:26.015Z,945.96
2018-02-25T06:47:25.980Z,945.92
2018-02-25T06:49:18.849Z,945.96
2018-02-25T06:50:18.815Z,945.91
2018-02-25T06:52:11.689Z,945.98
2018-02-25T06:53:11.653Z,945.93
2018-02-25T06:55:04.586Z,946.07
2018-02-25T06:56:04.558Z,945.93
2018-02-25T06:57:57.435Z,945.99
2018-02-25T06:58:57.397Z,946.01
2018-02-25T07:00:50.281Z,946.02
2018-02-25T07:01:50.242Z,946.02
2018-02-25T07:03:43.129Z,946.04
2018-02-25T07:04:43.171Z,946.03
2018-02-25T07:06:35.983Z,946.02
2018-02-25T07:07:35.946Z,946.10
2018-02-25T07:09:28.826Z,946.02
2018-02-25T07:10:28.823Z,946.04
2018-02-25T07:12:21.675Z,946.09
2018-02-25T07:13:21.665Z,946.06
2018-02-25T07:15:14.508Z,946.08
2018-02-25T07:16:14.486Z,946.08
2018-02-25T07:18:07.357Z,945.90
2018-02-25T07:19:07.320Z,946.00
2018-02-25T07:21:00.251Z,946.03
2018-02-25T07:22:00.212Z,946.02
2018-02-25T07:23:53.094Z,946.05
2018-02-25T07:24:53.066Z,946.12
2018-02-25T07:26:45.960Z,946.01
2018-02-25T07:27:45.909Z,945.89
2018-02-25T07:29:38.786Z,946.00
2018-02-25T07:30:38.754Z,946.13
2018-02-25T07:32:31.657Z,946.05
2018-02-25T07:33:31.623Z,945.86
2018-02-25T07:35:24.500Z,946.08
2018-02-25T07:36:24.472Z,946.10
2018-02-25T07:38:17.362Z,946.17
2018-02-25T07:39:17.321Z,946.14
2018-02-25T07:41:10.205Z,946.15
2018-02-25T07:42:10.181Z,946.15
2018-02-25T07:44:03.044Z,946.19
2018-02-25T07:45:03.016Z,946.14
2018-02-25T07:46:55.908Z,946.09
2018-02-25T07:47:55.877Z,946.06
2018-02-25T07:49:49.826Z,946.13
2018-02-25T07:50:49.735Z,946.17
2018-02-25T07:52:42.605Z,946.16
2018-02-25T07:53:42.579Z,946.10
2018-02-25T07:55:35.474Z,946.16
2018-02-25T07:56:35.445Z,946.13
2018-02-25T07:58:28.345Z,946.22
2018-02-25T07:59:28.293Z,946.08
2018-02-25T08:01:21.184Z,946.24
2018-02-25T08:02:21.161Z,946.31
2018-02-25T08:04:15.051Z,946.31
2018-02-25T08:05:15.015Z,946.31
2018-02-25T08:07:07.925Z,946.33
2018-02-25T08:08:07.893Z,946.31
2018-02-25T08:10:00.778Z,946.25
2018-02-25T08:11:00.744Z,946.38
2018-02-25T08:12:53.608Z,946.36
2018-02-25T08:13:53.587Z,946.28
2018-02-25T08:15:46.488Z,946.33
2018-02-25T08:16:46.446Z,946.40
2018-02-25T08:18:39.360Z,946.36
2018-02-25T08:19:39.338Z,946.25
2018-02-25T08:21:32.297Z,946.30
2018-02-25T08:22:32.262Z,946.38
2018-02-25T08:24:25.126Z,946.44
2018-02-25T08:25:25.113Z,946.30
2018-02-25T08:27:18.010Z,946.42
2018-02-25T08:28:17.979Z,946.27
2018-02-25T08:30:10.877Z,946.36
2018-02-25T08:31:10.854Z,946.46
2018-02-25T08:33:03.761Z,946.49
2018-02-25T08:34:03.758Z,946.53
2018-02-25T08:35:56.614Z,946.39
2018-02-25T08:36:56.598Z,946.40
2018-02-25T08:38:49.500Z,946.43
2018-02-25T08:39:49.499Z,946.49
2018-02-25T08:41:42.396Z,946.33
2018-02-25T08:42:42.343Z,946.58
2018-02-25T08:44:35.243Z,946.43
2018-02-25T08:45:35.221Z,946.52
2018-02-25T08:47:28.115Z,946.51
2018-02-25T08:48:28.085Z,946.51
2018-02-25T08:50:20.972Z,946.38
2018-02-25T08:51:20.958Z,946.51
2018-02-25T08:53:13.845Z,946.54
2018-02-25T08:54:13.828Z,946.58
2018-02-25T08:56:06.698Z,946.59
2018-02-25T08:57:06.722Z,946.59
2018-02-25T08:58:59.573Z,946.63
2018-02-25T08:59:59.553Z,946.65
2018-02-25T09:01:52.454Z,946.80
2018-02-25T09:02:52.436Z,946.76
2018-02-25T09:04:45.331Z,946.76
2018-02-25T09:05:45.305Z,946.68
2018-02-25T09:07:38.182Z,946.76
2018-02-25T09:08:38.163Z,946.74
2018-02-25T09:10:31.245Z,946.66
2018-02-25T09:11:31.232Z,946.64
2018-02-25T09:13:24.113Z,946.87
2018-02-25T09:14:24.090Z,946.75
2018-02-25T09:16:17.024Z,946.70
2018-02-25T09:17:16.991Z,946.65
2018-02-25T09:19:09.885Z,946.71
2018-02-25T09:20:09.855Z,946.30
2018-02-25T09:22:02.731Z,946.66
2018-02-25T09:23:02.705Z,946.68
2018-02-25T09:24:55.593Z,946.78
2018-02-25T09:25:55.569Z,946.71
2018-02-25T09:27:48.473Z,946.53
2018-02-25T09:28:48.448Z,946.67
2018-02-25T09:30:41.336Z,946.74
2018-02-25T09:31:41.307Z,946.71
2018-02-25T09:33:34.227Z,946.82
2018-02-25T09:34:34.200Z,946.79
2018-02-25T09:36:27.104Z,946.77
2018-02-25T09:37:27.070Z,946.75
2018-02-25T09:39:19.982Z,946.82
2018-02-25T09:40:19.957Z,946.77
2018-02-25T09:42:12.845Z,946.70
2018-02-25T09:43:12.814Z,946.73
2018-02-25T09:45:05.691Z,946.77
2018-02-25T09:46:05.669Z,946.78
2018-02-25T09:47:58.550Z,946.73
2018-02-25T09:48:58.523Z,946.74
2018-02-25T09:50:51.905Z,946.81
2018-02-25T09:51:51.883Z,946.81
2018-02-25T09:53:44.824Z,946.68
2018-02-25T09:54:44.792Z,946.80
2018-02-25T09:56:37.702Z,946.72
2018-02-25T09:57:37.677Z,946.65
2018-02-25T09:59:30.556Z,946.78
2018-02-25T10:00:30.546Z,946.71
2018-02-25T10:02:23.444Z,946.70
2018-02-25T10:03:23.407Z,946.79
2018-02-25T10:05:16.330Z,946.86
2018-02-25T10:06:16.299Z,946.80
2018-02-25T10:08:09.229Z,946.58
2018-02-25T10:09:09.205Z,946.86
2018-02-25T10:11:02.118Z,946.85
2018-02-25T10:12:02.108Z,946.83
2018-02-25T10:13:55.038Z,946.79
2018-02-25T10:14:55.009Z,946.87
2018-02-25T10:16:47.940Z,946.73
2018-02-25T10:17:47.913Z,946.94
2018-02-25T10:19:40.837Z,946.83
2018-02-25T10:20:40.813Z,946.86
2018-02-25T10:22:33.755Z,946.68
2018-02-25T10:23:33.737Z,946.85
2018-02-25T10:25:26.652Z,946.62
2018-02-25T10:26:26.630Z,946.91
2018-02-25T10:28:19.574Z,946.99
2018-02-25T10:29:19.525Z,946.90
2018-02-25T10:31:12.427Z,947.16
2018-02-25T10:32:12.403Z,946.94
2018-02-25T10:34:05.286Z,947.05
2018-02-25T10:35:05.278Z,946.95
2018-02-25T10:36:58.180Z,946.98
2018-02-25T10:37:58.160Z,946.93
2018-02-25T10:39:51.081Z,946.89
2018-02-25T10:40:51.119Z,946.95
2018-02-25T10:42:43.951Z,947.01
2018-02-25T10:43:43.936Z,947.00
2018-02-25T10:45:59.761Z,947.05
2018-02-25T10:46:59.741Z,947.05
2018-02-25T10:48:52.673Z,947.08
2018-02-25T10:49:52.637Z,947.04
2018-02-25T10:51:45.555Z,946.87
2018-02-25T10:52:45.518Z,946.93
2018-02-25T10:54:38.413Z,947.04
2018-02-25T10:55:38.400Z,947.00
2018-02-25T10:57:31.330Z,946.94
2018-02-25T10:58:31.304Z,946.92
2018-02-25T11:00:24.199Z,946.89
2018-02-25T11:01:24.191Z,946.88
2018-02-25T11:03:17.120Z,946.83
2018-02-25T11:04:17.090Z,946.82
2018-02-25T11:06:10.219Z,946.93
2018-02-25T11:07:10.189Z,946.93
2018-02-25T11:09:03.067Z,946.84
2018-02-25T11:10:03.091Z,946.86
2018-02-25T11:11:55.961Z,946.77
2018-02-25T11:12:56.020Z,946.85
2018-02-25T11:14:48.957Z,946.84
2018-02-25T11:15:48.926Z,946.76
2018-02-25T11:17:41.730Z,946.81
2018-02-25T11:18:41.710Z,946.81
2018-02-25T11:20:34.618Z,946.77
2018-02-25T11:21:34.613Z,946.83
2018-02-25T11:23:27.504Z,946.73
2018-02-25T11:24:27.482Z,946.73
2018-02-25T11:26:20.387Z,946.68
2018-02-25T11:27:20.381Z,946.75
2018-02-25T11:29:13.290Z,946.71
2018-02-25T11:30:13.270Z,946.68
2018-02-25T11:32:06.283Z,946.73
2018-02-25T11:33:06.257Z,946.71
2018-02-25T11:34:59.165Z,946.71
2018-02-25T11:35:59.146Z,946.58
2018-02-25T11:37:52.041Z,946.56
2018-02-25T11:38:52.034Z,946.68
2018-02-25T11:40:44.934Z,946.56
2018-02-25T11:41:44.923Z,946.67
2018-02-25T11:43:37.864Z,946.65
2018-02-25T11:44:37.801Z,946.64
2018-02-25T11:46:30.704Z,946.69
2018-02-25T11:47:30.687Z,946.60
2018-02-25T11:49:23.644Z,946.57
2018-02-25T11:50:23.604Z,946.66
2018-02-25T11:52:16.498Z,946.85
2018-02-25T11:53:16.480Z,946.73
2018-02-25T11:55:09.440Z,946.76
2018-02-25T11:56:09.386Z,946.62
2018-02-25T11:58:02.292Z,946.60
2018-02-25T11:59:02.280Z,946.73
2018-02-25T12:00:55.189Z,946.73
2018-02-25T12:01:55.189Z,946.70
2018-02-25T12:03:48.081Z,946.71
2018-02-25T12:04:48.057Z,946.63
2018-02-25T12:06:40.981Z,946.61
2018-02-25T12:07:40.932Z,946.73
2018-02-25T12:09:33.846Z,946.64
2018-02-25T12:10:33.869Z,946.67
2018-02-25T12:12:26.794Z,946.72
2018-02-25T12:13:26.757Z,946.62
2018-02-25T12:15:19.717Z,946.62
2018-02-25T12:16:19.676Z,946.63
2018-02-25T12:18:13.585Z,946.57
2018-02-25T12:19:13.570Z,946.57
2018-02-25T12:21:06.503Z,946.51
2018-02-25T12:22:06.473Z,946.54
2018-02-25T12:23:59.364Z,946.43
2018-02-25T12:24:59.378Z,946.52
2018-02-25T12:26:53.278Z,946.43
2018-02-25T12:27:53.252Z,946.51
2018-02-25T12:29:46.147Z,946.47
2018-02-25T12:30:46.149Z,946.51
2018-02-25T12:32:39.055Z,946.48
2018-02-25T12:33:39.036Z,946.46
2018-02-25T12:35:31.938Z,946.46
2018-02-25T12:36:31.923Z,946.47
2018-02-25T12:38:24.841Z,946.55
2018-02-25T12:39:24.802Z,946.50
2018-02-25T12:41:17.698Z,946.45
2018-02-25T12:42:17.681Z,946.50
2018-02-25T12:44:10.599Z,946.42
2018-02-25T12:45:10.586Z,946.49
2018-02-25T12:47:03.475Z,946.36
2018-02-25T12:48:03.466Z,946.33
2018-02-25T12:49:56.397Z,946.32
2018-02-25T12:50:56.334Z,946.39
2018-02-25T12:52:49.310Z,946.45
2018-02-25T12:53:49.246Z,946.39
2018-02-25T12:55:42.137Z,946.44
2018-02-25T12:56:42.115Z,946.41
2018-02-25T12:58:34.995Z,946.51
2018-02-25T12:59:34.971Z,946.46
2018-02-25T13:01:27.858Z,946.35
2018-02-25T13:02:27.868Z,946.43
2018-02-25T13:04:20.747Z,946.36
2018-02-25T13:05:20.708Z,946.42
2018-02-25T13:07:13.589Z,946.42
2018-02-25T13:08:13.554Z,946.41
2018-02-25T13:10:06.436Z,946.33
2018-02-25T13:11:06.409Z,946.31
2018-02-25T13:12:59.289Z,946.20
2018-02-25T13:13:59.281Z,946.31
2018-02-25T13:15:52.163Z,946.19
2018-02-25T13:16:52.147Z,946.22
2018-02-25T13:18:46.052Z,946.20
2018-02-25T13:19:46.001Z,946.35
2018-02-25T13:21:38.879Z,946.35
2018-02-25T13:22:38.878Z,946.26
2018-02-25T13:24:31.803Z,946.28
2018-02-25T13:25:31.731Z,946.32
2018-02-25T13:27:24.597Z,946.31
2018-02-25T13:28:24.564Z,946.38
2018-02-25T13:30:17.450Z,946.25
2018-02-25T13:31:17.431Z,946.26
2018-02-25T13:33:10.322Z,946.34
2018-02-25T13:34:10.297Z,946.30
2018-02-25T13:36:03.151Z,946.33
2018-02-25T13:37:03.115Z,946.37
2018-02-25T13:38:56.011Z,946.29
2018-02-25T13:39:55.982Z,946.38
2018-02-25T13:41:48.870Z,946.36
2018-02-25T13:42:48.830Z,946.27
2018-02-25T13:44:41.776Z,946.43
2018-02-25T13:45:41.735Z,946.41
2018-02-25T13:47:34.590Z,946.26
2018-02-25T13:48:34.635Z,946.42
2018-02-25T13:51:18.788Z,946.36
2018-02-25T13:52:18.780Z,946.37
2018-02-25T13:54:11.598Z,946.43
2018-02-25T13:55:11.580Z,946.39
2018-02-25T13:57:04.480Z,946.42
2018-02-25T13:58:04.424Z,946.39
2018-02-25T13:59:57.404Z,946.37
2018-02-25T14:00:57.382Z,946.42
2018-02-25T14:02:50.362Z,946.56
2018-02-25T14:03:50.324Z,946.44
2018-02-25T14:05:43.196Z,946.54
2018-02-25T14:06:43.175Z,946.38
2018-02-25T14:08:36.057Z,946.46
2018-02-25T14:09:36.015Z,946.41
2018-02-25T14:11:28.903Z,946.43
2018-02-25T14:12:28.898Z,946.43
2018-02-25T14:14:21.890Z,946.42
2018-02-25T14:15:21.858Z,946.39
2018-02-25T14:17:14.827Z,946.49
2018-02-25T14:18:14.826Z,946.48
2018-02-25T14:20:07.782Z,946.49
2018-02-25T14:21:07.645Z,946.44
2018-02-25T14:23:00.609Z,946.42
2018-02-25T14:24:00.591Z,946.49
2018-02-25T14:25:53.548Z,946.51
2018-02-25T14:26:53.460Z,946.56
2018-02-25T14:28:46.362Z,946.45
2018-02-25T14:29:46.309Z,946.40
2018-02-25T14:31:39.200Z,946.47
2018-02-25T14:32:39.164Z,946.48
2018-02-25T14:34:32.158Z,946.40
2018-02-25T14:35:32.134Z,946.37
2018-02-25T14:37:25.650Z,946.34
2018-02-25T14:38:25.496Z,946.31
2018-02-25T14:40:18.467Z,946.36
2018-02-25T14:41:18.421Z,946.43
2018-02-25T14:43:11.309Z,946.34
2018-02-25T14:44:11.424Z,946.51
2018-02-25T14:46:04.167Z,946.33
2018-02-25T14:47:04.140Z,946.51
2018-02-25T14:48:57.013Z,946.51
2018-02-25T14:49:57.028Z,946.35
2018-02-25T14:51:49.960Z,946.41
2018-02-25T14:52:49.874Z,946.42
2018-02-25T14:54:42.791Z,946.39
2018-02-25T14:55:42.761Z,946.39
2018-02-25T14:57:35.695Z,946.36
2018-02-25T14:58:35.650Z,946.26
2018-02-25T15:00:28.523Z,946.36
2018-02-25T15:01:28.492Z,946.26
2018-02-25T15:03:21.383Z,946.38
2018-02-25T15:04:21.342Z,946.31
2018-02-25T15:06:14.226Z,946.35
2018-02-25T15:07:14.200Z,946.31
2018-02-25T15:09:07.094Z,946.33
2018-02-25T15:10:07.052Z,946.32
2018-02-25T15:12:00.030Z,946.35
2018-02-25T15:13:00.009Z,946.26
2018-02-25T15:14:52.915Z,946.39
2018-02-25T15:15:52.882Z,946.36
2018-02-25T15:17:45.881Z,946.43
2018-02-25T15:18:45.877Z,946.42
2018-02-25T15:20:38.682Z,946.40
2018-02-25T15:21:38.649Z,946.40
2018-02-25T15:23:31.533Z,946.35
2018-02-25T15:24:31.555Z,946.39
2018-02-25T15:25:31.553Z,946.53
2018-02-25T15:26:31.485Z,946.43
2018-02-25T15:27:31.471Z,946.51
2018-02-25T15:28:31.449Z,946.49
2018-02-25T15:29:31.457Z,946.46
2018-02-25T15:30:31.445Z,946.37
2018-02-25T15:31:31.396Z,946.48
2018-02-25T15:32:31.399Z,946.53
2018-02-25T15:33:31.360Z,946.50
2018-02-25T15:34:31.403Z,946.48
2018-02-25T15:35:31.351Z,946.53
2018-02-25T15:36:31.332Z,946.56
2018-02-25T15:37:31.317Z,946.47
2018-02-25T15:38:31.335Z,946.52
2018-02-25T15:39:31.286Z,946.49
2018-02-25T15:40:31.278Z,946.38
2018-02-25T15:41:31.227Z,946.54
2018-02-25T15:42:31.212Z,946.55
2018-02-25T15:43:31.200Z,946.54
2018-02-25T15:44:31.188Z,946.63
2018-02-25T15:45:31.221Z,946.45
2018-02-25T15:46:31.175Z,946.44
2018-02-25T15:47:31.169Z,946.54
2018-02-25T15:48:31.152Z,946.53
2018-02-25T15:49:31.180Z,946.56
2018-02-25T15:50:31.141Z,946.50
2018-02-25T15:51:31.146Z,946.47
2018-02-25T15:52:31.107Z,946.54
2018-02-25T15:53:31.043Z,946.56
2018-02-25T15:54:31.046Z,946.56
2018-02-25T15:55:31.019Z,946.64
2018-02-25T15:56:31.008Z,946.58
2018-02-25T15:57:30.982Z,946.63
2018-02-25T15:58:30.960Z,946.58
2018-02-25T15:59:30.962Z,946.53
2018-02-25T16:00:30.930Z,946.56
2018-02-25T16:01:30.906Z,946.52
2018-02-25T16:02:30.902Z,946.62
2018-02-25T16:03:30.883Z,946.54
2018-02-25T16:04:30.900Z,946.60
2018-02-25T16:05:30.885Z,946.60
2018-02-25T16:06:30.845Z,946.57
2018-02-25T16:07:30.835Z,946.66
2018-02-25T16:08:30.829Z,946.64
2018-02-25T16:09:30.785Z,946.65
2018-02-25T16:10:30.771Z,946.67
2018-02-25T16:11:30.747Z,946.72
2018-02-25T16:12:30.730Z,946.70
2018-02-25T16:13:30.712Z,946.77
2018-02-25T16:14:30.748Z,946.71
2018-02-25T16:15:30.717Z,946.75
2018-02-25T16:16:30.661Z,946.80
2018-02-25T16:17:30.762Z,946.73
2018-02-25T16:18:30.626Z,946.78
2018-02-25T16:19:30.622Z,946.75
2018-02-25T16:20:30.611Z,946.79
2018-02-25T16:21:30.578Z,946.82
2018-02-25T16:22:30.566Z,946.76
2018-02-25T16:23:30.543Z,946.69
2018-02-25T16:24:30.539Z,946.78
2018-02-25T16:25:30.565Z,946.68
2018-02-25T16:26:30.497Z,946.71
2018-02-25T16:27:30.481Z,946.73
2018-02-25T16:28:30.463Z,946.78
2018-02-25T16:29:31.084Z,946.74
2018-02-25T16:30:30.444Z,946.69
2018-02-25T16:31:30.416Z,946.71
2018-02-25T16:32:30.424Z,946.75
2018-02-25T16:33:30.377Z,946.74
2018-02-25T16:34:30.372Z,946.80
2018-02-25T16:35:30.337Z,946.83
2018-02-25T16:36:31.093Z,946.76
2018-02-25T16:37:30.319Z,946.76
2018-02-25T16:38:30.295Z,946.77
2018-02-25T16:39:30.303Z,946.79
2018-02-25T16:40:30.299Z,946.76
2018-02-25T16:41:30.377Z,946.86
2018-02-25T16:42:30.243Z,946.83
2018-02-25T16:43:30.208Z,946.82
2018-02-25T16:44:30.228Z,946.90
2018-02-25T16:45:30.188Z,946.83
2018-02-25T16:46:30.181Z,946.90
2018-02-25T16:47:30.221Z,946.87
2018-02-25T16:48:30.139Z,946.93
2018-02-25T16:49:30.156Z,946.92
2018-02-25T16:50:30.130Z,946.97
2018-02-25T16:51:30.084Z,946.89
2018-02-25T16:52:30.070Z,946.87
2018-02-25T16:53:30.040Z,946.93
2018-02-25T16:54:30.044Z,946.90
2018-02-25T16:55:30.033Z,946.91
2018-02-25T16:56:29.990Z,946.95
2018-02-25T16:57:30.589Z,947.01
2018-02-25T16:58:29.954Z,946.95
2018-02-25T16:59:29.946Z,946.96
2018-02-25T17:00:29.921Z,946.96
2018-02-25T17:01:29.905Z,946.92
2018-02-25T17:02:29.888Z,946.98
2018-02-25T17:03:29.894Z,946.98
2018-02-25T17:04:29.849Z,947.07
2018-02-25T17:05:29.834Z,947.04
2018-02-25T17:06:29.819Z,947.05
2018-02-25T17:07:29.797Z,947.07
2018-02-25T17:08:29.778Z,947.09
2018-02-25T17:09:29.773Z,947.04
2018-02-25T17:10:29.772Z,947.10
2018-02-25T17:11:29.730Z,947.09
2018-02-25T17:12:29.707Z,947.08
2018-02-25T17:13:29.684Z,947.15
2018-02-25T17:14:29.715Z,947.10
2018-02-25T17:15:29.681Z,947.13
2018-02-25T17:16:29.659Z,947.13
2018-02-25T17:17:30.581Z,947.14
2018-02-25T17:18:29.614Z,947.14
2018-02-25T17:19:29.608Z,947.14
2018-02-25T17:20:29.595Z,947.22
2018-02-25T17:21:29.594Z,947.20
2018-02-25T17:22:29.550Z,947.17
2018-02-25T17:23:29.577Z,947.15
2018-02-25T17:24:29.518Z,947.27
2018-02-25T17:25:29.510Z,947.22
2018-02-25T17:26:29.500Z,947.27
2018-02-25T17:27:29.456Z,947.23
2018-02-25T17:28:29.455Z,947.22
2018-02-25T17:29:29.429Z,947.24
2018-02-25T17:30:29.427Z,947.34
2018-02-25T17:31:29.438Z,947.30
2018-02-25T17:32:29.419Z,947.26
2018-02-25T17:33:29.374Z,947.29
2018-02-25T17:34:29.354Z,947.23
2018-02-25T17:35:29.369Z,947.28
2018-02-25T17:36:29.370Z,947.24
2018-02-25T17:37:29.296Z,947.30
2018-02-25T17:38:29.279Z,947.33
2018-02-25T17:39:29.247Z,947.35
2018-02-25T17:40:29.275Z,947.31
2018-02-25T17:41:29.234Z,947.27
2018-02-25T17:42:29.201Z,947.27
2018-02-25T17:43:29.215Z,947.33
2018-02-25T17:44:29.200Z,947.28
2018-02-25T17:45:29.145Z,947.28
2018-02-25T17:46:29.135Z,947.31
2018-02-25T17:47:29.113Z,947.29
2018-02-25T17:48:29.117Z,947.29
2018-02-25T17:49:29.127Z,947.29
2018-02-25T17:50:29.059Z,947.30
2018-02-25T17:51:29.063Z,947.36
2018-02-25T17:52:29.063Z,947.31
2018-02-25T17:53:29.076Z,947.29
2018-02-25T17:54:29.025Z,947.33
2018-02-25T17:55:33.563Z,947.31
2018-02-25T17:56:28.962Z,947.30
2018-02-25T17:57:28.932Z,947.34
2018-02-25T17:58:28.925Z,947.41
2018-02-25T17:59:28.903Z,947.37
2018-02-25T18:00:28.918Z,947.35
2018-02-25T18:01:28.851Z,947.37
2018-02-25T18:02:28.856Z,947.38
2018-02-25T18:03:28.828Z,947.28
2018-02-25T18:04:28.811Z,947.33
2018-02-25T18:05:28.822Z,947.38
2018-02-25T18:06:28.786Z,947.40
2018-02-25T18:07:28.783Z,947.37
2018-02-25T18:08:28.766Z,947.39
2018-02-25T18:09:28.773Z,947.42
2018-02-25T18:10:28.777Z,947.42
2018-02-25T18:11:28.705Z,947.45
2018-02-25T18:12:28.682Z,947.37
2018-02-25T18:13:29.503Z,947.34
2018-02-25T18:14:28.649Z,947.49
2018-02-25T18:15:28.626Z,947.38
2018-02-25T18:16:28.605Z,947.41
2018-02-25T18:17:28.616Z,947.39
2018-02-25T18:18:28.621Z,947.39
2018-02-25T18:19:28.604Z,947.40
2018-02-25T18:20:28.541Z,947.36
2018-02-25T18:21:28.516Z,947.31
2018-02-25T18:22:28.516Z,947.34
2018-02-25T18:23:28.476Z,947.32
2018-02-25T18:24:28.454Z,947.35
2018-02-25T18:25:28.464Z,947.35
2018-02-25T18:26:28.429Z,947.32
2018-02-25T18:27:28.406Z,947.38
2018-02-25T18:28:28.402Z,947.39
2018-02-25T18:29:28.389Z,947.37
2018-02-25T18:30:28.345Z,947.35
2018-02-25T18:31:28.329Z,947.38
2018-02-25T18:32:28.329Z,947.38
2018-02-25T18:33:28.306Z,947.39
2018-02-25T18:34:28.313Z,947.39
2018-02-25T18:35:28.270Z,947.37
2018-02-25T18:36:28.252Z,947.37
2018-02-25T18:37:28.239Z,947.43
2018-02-25T18:38:28.207Z,947.39
2018-02-25T18:39:28.213Z,947.44
2018-02-25T18:40:28.174Z,947.36
2018-02-25T18:41:28.153Z,947.40
2018-02-25T18:42:28.161Z,947.36
2018-02-25T18:43:28.164Z,947.40
2018-02-25T18:44:28.103Z,947.36
2018-02-25T18:45:29.009Z,947.36
2018-02-25T18:46:28.054Z,947.47
2018-02-25T18:47:28.072Z,947.38
2018-02-25T18:48:28.026Z,947.40
2018-02-25T18:49:28.032Z,947.45
2018-02-25T18:50:28.009Z,947.46
2018-02-25T18:51:28.012Z,947.47
2018-02-25T18:52:27.951Z,947.45
2018-02-25T18:53:27.961Z,947.49
2018-02-25T18:54:27.933Z,947.42
2018-02-25T18:55:27.908Z,947.40
2018-02-25T18:56:27.915Z,947.44
2018-02-25T18:57:27.885Z,947.50
2018-02-25T18:58:27.858Z,947.37
2018-02-25T18:59:27.866Z,947.47
2018-02-25T19:00:27.868Z,947.46
2018-02-25T19:01:27.793Z,947.52
2018-02-25T19:02:27.779Z,947.49
2018-02-25T19:03:27.759Z,947.51
2018-02-25T19:04:27.770Z,947.46
2018-02-25T19:05:27.732Z,947.53
2018-02-25T19:06:27.701Z,947.51
2018-02-25T19:07:27.694Z,947.52
2018-02-25T19:08:27.717Z,947.50
2018-02-25T19:09:27.654Z,947.43
2018-02-25T19:10:27.658Z,947.47
2018-02-25T19:11:27.636Z,947.51
2018-02-25T19:12:27.619Z,947.51
2018-02-25T19:13:27.584Z,947.47
2018-02-25T19:14:27.583Z,947.47
2018-02-25T19:15:27.556Z,947.49
2018-02-25T19:16:27.555Z,947.49
2018-02-25T19:17:27.505Z,947.48
2018-02-25T19:18:27.474Z,947.46
2018-02-25T19:19:27.482Z,947.48
2018-02-25T19:20:27.464Z,947.47
2018-02-25T19:21:27.428Z,947.46
2018-02-25T19:22:27.434Z,947.46
2018-02-25T19:23:27.406Z,947.50
2018-02-25T19:24:27.416Z,947.45
2018-02-25T19:25:27.387Z,947.47
2018-02-25T19:26:27.364Z,947.49
2018-02-25T19:27:27.342Z,947.50
2018-02-25T19:28:27.311Z,947.48
2018-02-25T19:29:27.316Z,947.49
2018-02-25T19:30:27.284Z,947.50
2018-02-25T19:31:27.253Z,947.44
2018-02-25T19:32:27.246Z,947.48
2018-02-25T19:33:27.221Z,947.45
2018-02-25T19:34:27.195Z,947.46
2018-02-25T19:35:27.179Z,947.45
2018-02-25T19:36:27.156Z,947.43
2018-02-25T19:37:27.163Z,947.51
2018-02-25T19:38:27.136Z,947.42
2018-02-25T19:39:27.112Z,947.50
2018-02-25T19:40:27.086Z,947.46
2018-02-25T19:41:27.076Z,947.48
2018-02-25T19:42:27.107Z,947.48
2018-02-25T19:43:27.062Z,947.45
2018-02-25T19:44:27.027Z,947.50
2018-02-25T19:45:27.014Z,947.52
2018-02-25T19:46:26.984Z,947.47
2018-02-25T19:47:26.957Z,947.48
2018-02-25T19:48:26.949Z,947.47
2018-02-25T19:49:26.959Z,947.49
2018-02-25T19:50:26.906Z,947.45
2018-02-25T19:51:26.919Z,947.48
2018-02-25T19:52:26.875Z,947.50
2018-02-25T19:53:26.858Z,947.45
2018-02-25T19:54:26.831Z,947.50
2018-02-25T19:55:26.836Z,947.52
2018-02-25T19:56:26.796Z,947.50
2018-02-25T19:57:26.787Z,947.47
2018-02-25T19:58:26.756Z,947.45
2018-02-25T19:59:26.764Z,947.43
2018-02-25T20:00:26.727Z,947.40
2018-02-25T20:01:26.711Z,947.42
2018-02-25T20:02:26.712Z,947.44
2018-02-25T20:03:26.684Z,947.43
2018-02-25T20:04:26.698Z,947.40
2018-02-25T20:05:26.652Z,947.36
2018-02-25T20:06:26.661Z,947.33
2018-02-25T20:07:26.653Z,947.34
2018-02-25T20:08:26.612Z,947.34
2018-02-25T20:09:26.565Z,947.36
2018-02-25T20:10:26.568Z,947.34
2018-02-25T20:11:26.531Z,947.38
2018-02-25T20:12:26.541Z,947.33
2018-02-25T20:13:26.501Z,947.36
2018-02-25T20:14:26.474Z,947.35
2018-02-25T20:15:26.455Z,947.32
2018-02-25T20:16:26.431Z,947.35
2018-02-25T20:17:26.436Z,947.31
2018-02-25T20:18:26.998Z,947.32
2018-02-25T20:19:26.380Z,947.26
2018-02-25T20:20:26.373Z,947.28
2018-02-25T20:21:26.346Z,947.29
2018-02-25T20:22:26.353Z,947.25
2018-02-25T20:23:26.301Z,947.27
2018-02-25T20:24:26.313Z,947.21
2018-02-25T20:25:26.268Z,947.26
2018-02-25T20:26:26.258Z,947.21
2018-02-25T20:27:26.233Z,947.18
2018-02-25T20:28:26.234Z,947.20
2018-02-25T20:29:26.200Z,947.19
2018-02-25T20:30:26.202Z,947.18
2018-02-25T20:31:26.155Z,947.19
2018-02-25T20:32:26.153Z,947.18
2018-02-25T20:33:26.118Z,947.11
2018-02-25T20:34:26.102Z,947.14
2018-02-25T20:35:26.117Z,947.14
2018-02-25T20:36:26.083Z,947.10
2018-02-25T20:37:26.088Z,947.10
2018-02-25T20:38:26.039Z,947.13
2018-02-25T20:39:26.051Z,947.12
2018-02-25T20:40:25.990Z,947.06
2018-02-25T20:41:26.013Z,947.13
2018-02-25T20:42:25.967Z,947.09
2018-02-25T20:43:25.935Z,947.13
2018-02-25T20:44:25.933Z,947.12
2018-02-25T20:45:25.930Z,947.08
2018-02-25T20:46:25.898Z,947.13
2018-02-25T20:47:25.861Z,947.11
2018-02-25T20:48:25.859Z,947.17
2018-02-25T20:49:25.864Z,947.15
2018-02-25T20:50:26.502Z,947.08
2018-02-25T20:51:25.823Z,947.08
2018-02-25T20:52:25.782Z,947.03
2018-02-25T20:53:25.783Z,947.08
2018-02-25T20:54:25.738Z,947.12
2018-02-25T20:55:25.754Z,947.12
2018-02-25T20:56:25.706Z,947.06
2018-02-25T20:57:25.712Z,947.12
2018-02-25T20:58:25.673Z,947.09
2018-02-25T20:59:25.672Z,947.06
2018-02-25T21:00:25.636Z,947.08
2018-02-25T21:01:25.596Z,947.05
2018-02-25T21:02:25.589Z,946.99
2018-02-25T21:03:25.600Z,947.04
2018-02-25T21:04:25.556Z,947.07
2018-02-25T21:05:25.563Z,947.05
2018-02-25T21:06:25.539Z,947.07
2018-02-25T21:07:26.086Z,947.02
2018-02-25T21:08:25.478Z,947.04
2018-02-25T21:09:25.483Z,947.07
2018-02-25T21:10:25.490Z,947.08
2018-02-25T21:11:25.441Z,947.04
2018-02-25T21:12:25.407Z,947.05
2018-02-25T21:13:25.406Z,946.99
2018-02-25T21:14:25.416Z,947.03
2018-02-25T21:15:25.368Z,947.05
2018-02-25T21:16:25.356Z,946.99
2018-02-25T21:17:25.331Z,946.97
2018-02-25T21:18:25.350Z,947.01
2018-02-25T21:19:25.296Z,946.98
2018-02-25T21:20:25.280Z,946.92
2018-02-25T21:21:25.247Z,946.92
2018-02-25T21:22:25.267Z,946.92
2018-02-25T21:23:25.209Z,946.91
2018-02-25T21:24:25.212Z,946.94
2018-02-25T21:25:25.180Z,946.89
2018-02-25T21:26:25.141Z,946.90
2018-02-25T21:27:25.117Z,946.94
2018-02-25T21:28:25.097Z,946.96
2018-02-25T21:29:25.107Z,946.92
2018-02-25T21:30:25.063Z,946.91
2018-02-25T21:31:25.046Z,946.85
2018-02-25T21:32:25.033Z,946.92
2018-02-25T21:33:25.010Z,946.88
2018-02-25T21:34:25.024Z,946.86
2018-02-25T21:35:24.978Z,946.88
2018-02-25T21:36:24.950Z,946.93
2018-02-25T21:37:24.934Z,946.89
2018-02-25T21:38:24.916Z,946.89
2018-02-25T21:39:24.909Z,946.88